createdAt,value
2019-06-15T00:01:15.958Z,16.25
2019-06-15T00:03:43.664Z,15.32
2019-06-15T00:06:11.374Z,14.68
2019-06-15T00:08:39.001Z,14.67
2019-06-15T00:11:06.683Z,14.63
2019-06-15T00:13:34.301Z,16.20
2019-06-15T00:16:02.018Z,16.30
2019-06-15T00:18:29.654Z,16.32
2019-06-15T00:20:57.329Z,16.12
2019-06-15T00:23:25.026Z,16.90
2019-06-15T00:25:52.722Z,17.67
2019-06-15T00:28:20.362Z,17.67
2019-06-15T00:30:50.469Z,16.97
2019-06-15T00:33:18.098Z,16.07
2019-06-15T00:35:45.835Z,16.65
2019-06-15T00:38:13.505Z,16.75
2019-06-15T00:40:41.199Z,16.90
2019-06-15T00:43:08.890Z,18.50
2019-06-15T00:45:36.607Z,18.85
2019-06-15T00:48:04.269Z,19.48
2019-06-15T00:50:31.956Z,19.82
2019-06-15T00:52:59.646Z,21.03
2019-06-15T00:55:27.294Z,22.10
2019-06-15T00:57:55.202Z,22.42
2019-06-15T01:00:22.875Z,21.35
2019-06-15T01:02:51.034Z,21.23
2019-06-15T01:05:18.642Z,21.97
2019-06-15T01:07:46.348Z,21.27
2019-06-15T01:10:13.982Z,20.35
2019-06-15T01:12:41.840Z,18.98
2019-06-15T01:15:09.884Z,19.10
2019-06-15T01:17:37.655Z,19.60
2019-06-15T01:20:07.163Z,21.47
2019-06-15T01:22:34.863Z,22.33
2019-06-15T01:25:05.906Z,22.10
2019-06-15T01:27:33.178Z,23.77
2019-06-15T01:30:00.875Z,22.27
2019-06-15T01:32:28.566Z,21.65
2019-06-15T01:34:56.194Z,20.65
2019-06-15T01:37:23.868Z,19.80
2019-06-15T01:39:51.883Z,18.73
2019-06-15T01:42:19.570Z,16.37
2019-06-15T01:44:47.275Z,16.32
2019-06-15T01:47:14.927Z,16.83
2019-06-15T01:49:42.581Z,17.12
2019-06-15T01:52:10.268Z,16.62
2019-06-15T01:54:37.984Z,16.53
2019-06-15T01:57:05.644Z,17.07
2019-06-15T01:59:33.313Z,16.30
2019-06-15T02:02:02.145Z,17.07
2019-06-15T02:04:29.831Z,17.57
2019-06-15T02:06:59.807Z,18.23
2019-06-15T02:09:27.524Z,20.73
2019-06-15T02:11:55.687Z,20.50
2019-06-15T02:14:23.356Z,19.27
2019-06-15T02:16:51.043Z,19.85
2019-06-15T02:19:18.726Z,18.50
2019-06-15T02:21:46.403Z,19.03
2019-06-15T02:24:14.079Z,18.90
2019-06-15T02:26:41.787Z,19.30
2019-06-15T02:29:09.502Z,19.93
2019-06-15T02:31:37.157Z,19.33
2019-06-15T02:34:04.828Z,18.00
2019-06-15T02:36:32.470Z,17.73
2019-06-15T02:39:00.181Z,19.20
2019-06-15T02:41:27.824Z,19.55
2019-06-15T02:43:55.523Z,19.80
2019-06-15T02:46:26.315Z,19.37
2019-06-15T02:48:52.811Z,19.73
2019-06-15T02:51:20.660Z,21.25
2019-06-15T02:53:48.460Z,20.83
2019-06-15T02:56:16.088Z,22.30
2019-06-15T02:58:43.791Z,22.03
2019-06-15T03:01:11.463Z,21.87
2019-06-15T03:03:39.149Z,21.93
2019-06-15T03:06:06.795Z,22.83
2019-06-15T03:08:34.652Z,20.72
2019-06-15T03:11:02.602Z,21.47
2019-06-15T03:13:31.213Z,20.82
2019-06-15T03:15:58.897Z,22.30
2019-06-15T03:18:26.558Z,20.50
2019-06-15T03:20:54.216Z,22.30
2019-06-15T03:23:21.926Z,21.80
2019-06-15T03:25:49.611Z,22.47
2019-06-15T03:28:17.261Z,22.27
2019-06-15T03:30:44.969Z,22.82
2019-06-15T03:33:12.629Z,22.30
2019-06-15T03:35:40.378Z,21.77
2019-06-15T03:38:08.163Z,23.10
2019-06-15T03:40:35.860Z,23.50
2019-06-15T03:43:03.653Z,25.05
2019-06-15T03:45:31.444Z,25.52
2019-06-15T03:47:59.241Z,25.20
2019-06-15T03:50:26.946Z,27.55
2019-06-15T03:52:54.641Z,28.75
2019-06-15T03:55:22.513Z,26.57
2019-06-15T03:57:50.184Z,29.03
2019-06-15T04:00:43.941Z,29.40
2019-06-15T04:03:11.657Z,27.70
2019-06-15T04:05:39.361Z,30.50
2019-06-15T04:08:07.210Z,31.50
2019-06-15T04:10:34.899Z,33.35
2019-06-15T04:13:02.571Z,35.77
2019-06-15T04:15:30.277Z,38.20
2019-06-15T04:17:58.251Z,38.50
2019-06-15T04:20:25.925Z,39.03
2019-06-15T04:22:53.566Z,38.97
2019-06-15T04:25:21.314Z,38.63
2019-06-15T04:27:49.047Z,37.90
2019-06-15T04:30:16.715Z,37.33
2019-06-15T04:32:44.325Z,35.53
2019-06-15T04:35:12.015Z,37.93
2019-06-15T04:37:39.676Z,37.05
2019-06-15T04:40:07.357Z,36.60
2019-06-15T04:42:35.008Z,36.43
2019-06-15T04:45:02.974Z,36.87
2019-06-15T04:47:30.614Z,37.77
2019-06-15T04:49:58.271Z,36.75
2019-06-15T04:52:25.963Z,37.00
2019-06-15T04:54:54.541Z,36.33
2019-06-15T04:57:22.249Z,38.70
2019-06-15T04:59:49.865Z,36.37
2019-06-15T05:02:17.862Z,39.63
2019-06-15T05:04:45.710Z,38.33
2019-06-15T05:07:15.537Z,40.37
2019-06-15T05:09:43.072Z,41.00
2019-06-15T05:12:10.739Z,41.13
2019-06-15T05:14:38.394Z,40.00
2019-06-15T05:17:06.062Z,41.23
2019-06-15T05:19:33.709Z,39.73
2019-06-15T05:22:01.400Z,39.03
2019-06-15T05:24:29.067Z,40.83
2019-06-15T05:27:05.823Z,41.63
2019-06-15T05:29:26.195Z,42.33
2019-06-15T05:31:53.896Z,41.90
2019-06-15T05:34:21.932Z,42.80
2019-06-15T05:36:51.113Z,42.43
2019-06-15T05:39:20.390Z,41.00
2019-06-15T05:41:48.181Z,39.80
2019-06-15T05:44:15.843Z,41.63
2019-06-15T05:46:43.525Z,42.93
2019-06-15T05:49:11.190Z,42.20
2019-06-15T05:51:38.851Z,41.47
2019-06-15T05:54:07.580Z,41.37
2019-06-15T05:56:35.289Z,41.87
2019-06-15T05:59:02.944Z,40.90
2019-06-15T06:01:30.592Z,40.93
2019-06-15T06:03:58.278Z,40.27
2019-06-15T06:06:25.943Z,37.47
2019-06-15T06:08:53.599Z,37.03
2019-06-15T06:11:21.280Z,35.47
2019-06-15T06:13:48.938Z,35.37
2019-06-15T06:16:16.611Z,36.63
2019-06-15T06:18:51.313Z,37.73
2019-06-15T06:21:18.935Z,35.27
2019-06-15T06:23:46.619Z,34.83
2019-06-15T06:26:14.270Z,32.93
2019-06-15T06:28:56.293Z,31.37
2019-06-15T06:31:11.488Z,29.80
2019-06-15T06:33:39.212Z,30.07
2019-06-15T06:36:06.902Z,28.83
2019-06-15T06:38:34.664Z,28.03
2019-06-15T06:41:02.354Z,27.57
2019-06-15T06:43:30.078Z,26.87
2019-06-15T06:45:57.780Z,25.57
2019-06-15T06:48:25.473Z,22.60
2019-06-15T06:50:53.136Z,25.10
2019-06-15T06:53:20.823Z,27.63
2019-06-15T06:55:48.492Z,27.40
2019-06-15T06:58:16.233Z,26.83
2019-06-15T07:00:45.715Z,26.25
2019-06-15T07:03:13.444Z,28.27
2019-06-15T07:05:41.691Z,27.75
2019-06-15T07:08:09.370Z,27.32
2019-06-15T07:10:37.059Z,25.27
2019-06-15T07:13:04.868Z,25.15
2019-06-15T07:15:32.550Z,23.02
2019-06-15T07:18:00.249Z,20.02
2019-06-15T07:20:28.000Z,20.00
2019-06-15T07:22:55.715Z,19.12
2019-06-15T07:25:23.529Z,19.15
2019-06-15T07:28:06.952Z,18.05
2019-06-15T07:30:20.713Z,17.62
2019-06-15T07:32:48.457Z,17.42
2019-06-15T07:35:16.131Z,17.40
2019-06-15T07:37:43.896Z,17.67
2019-06-15T07:40:11.745Z,17.25
2019-06-15T07:42:39.704Z,17.42
2019-06-15T07:45:08.898Z,16.50
2019-06-15T07:47:36.657Z,13.55
2019-06-15T07:50:04.731Z,12.73
2019-06-15T07:52:32.439Z,13.38
2019-06-15T07:55:00.207Z,14.87
2019-06-15T07:57:28.083Z,14.70
2019-06-15T07:59:55.865Z,13.53
2019-06-15T08:02:23.530Z,12.45
2019-06-15T08:04:56.357Z,11.73
2019-06-15T08:07:24.074Z,12.15
2019-06-15T08:09:52.104Z,13.83
2019-06-15T08:12:19.762Z,13.15
2019-06-15T08:14:47.487Z,12.53
2019-06-15T08:17:15.165Z,12.07
2019-06-15T08:19:42.878Z,12.37
2019-06-15T08:22:10.604Z,12.45
2019-06-15T08:24:38.273Z,12.53
2019-06-15T08:27:05.959Z,13.80
2019-06-15T08:29:33.712Z,14.03
2019-06-15T08:32:01.376Z,13.48
2019-06-15T08:34:29.040Z,13.38
2019-06-15T08:36:57.040Z,13.68
2019-06-15T08:39:24.721Z,14.33
2019-06-15T08:41:56.918Z,14.60
2019-06-15T08:44:24.406Z,14.43
2019-06-15T08:46:53.246Z,13.90
2019-06-15T08:49:20.961Z,13.90
2019-06-15T08:51:48.625Z,14.05
2019-06-15T08:54:16.365Z,15.40
2019-06-15T08:56:44.073Z,15.48
2019-06-15T08:59:11.839Z,15.45
2019-06-15T09:01:39.526Z,11.75
2019-06-15T09:04:07.244Z,11.55
2019-06-15T09:06:34.922Z,10.72
2019-06-15T09:09:02.571Z,11.70
2019-06-15T09:11:30.264Z,13.27
2019-06-15T09:13:58.215Z,13.30
2019-06-15T09:16:26.008Z,13.83
2019-06-15T09:18:55.560Z,13.30
2019-06-15T09:21:23.199Z,13.23
2019-06-15T09:23:51.309Z,11.60
2019-06-15T09:26:18.994Z,11.85
2019-06-15T09:28:46.653Z,11.90
2019-06-15T09:31:14.365Z,12.17
2019-06-15T09:33:42.217Z,12.67
2019-06-15T09:36:09.899Z,13.80
2019-06-15T09:38:37.666Z,14.90
2019-06-15T09:41:05.333Z,14.17
2019-06-15T09:43:33.030Z,15.80
2019-06-15T09:46:03.506Z,16.67
2019-06-15T09:48:31.150Z,16.32
2019-06-15T09:50:58.929Z,18.02
2019-06-15T09:53:26.613Z,17.53
2019-06-15T09:55:54.356Z,17.75
2019-06-15T09:58:22.076Z,16.25
2019-06-15T10:00:49.806Z,16.23
2019-06-15T10:03:17.487Z,16.70
2019-06-15T10:05:45.173Z,17.37
2019-06-15T10:08:12.986Z,17.55
2019-06-15T10:10:40.669Z,17.27
2019-06-15T10:13:08.402Z,16.17
2019-06-15T10:15:36.070Z,12.60
2019-06-15T10:18:03.815Z,13.10
2019-06-15T10:20:31.445Z,11.83
2019-06-15T10:22:59.106Z,11.65
2019-06-15T10:25:26.744Z,9.28
2019-06-15T10:27:54.381Z,9.15
2019-06-15T10:30:22.129Z,7.47
2019-06-15T10:32:49.845Z,6.78
2019-06-15T10:35:25.204Z,7.28
2019-06-15T10:37:52.816Z,6.47
2019-06-15T10:40:22.255Z,6.30
2019-06-15T10:42:49.904Z,5.65
2019-06-15T10:45:17.745Z,4.78
2019-06-15T10:47:45.387Z,3.72
2019-06-15T10:50:14.922Z,3.70
2019-06-15T10:52:42.466Z,3.22
2019-06-15T10:55:10.586Z,3.40
2019-06-15T10:57:38.228Z,3.58
2019-06-15T11:00:06.585Z,3.40
2019-06-15T11:02:34.254Z,3.83
2019-06-15T11:05:01.889Z,3.42
2019-06-15T11:07:29.537Z,2.70
2019-06-15T11:09:57.244Z,2.45
2019-06-15T11:12:24.896Z,2.52
2019-06-15T11:14:52.500Z,2.27
2019-06-15T11:17:20.533Z,2.30
2019-06-15T11:19:48.153Z,2.25
2019-06-15T11:22:15.807Z,2.00
2019-06-15T11:24:43.441Z,2.35
2019-06-15T11:27:12.203Z,2.40
2019-06-15T11:29:39.845Z,2.55
2019-06-15T11:32:07.469Z,2.25
2019-06-15T11:34:35.186Z,2.30
2019-06-15T11:37:02.790Z,2.60
2019-06-15T11:39:34.593Z,2.25
2019-06-15T11:42:02.289Z,2.20
2019-06-15T11:44:29.967Z,2.08
2019-06-15T11:46:57.721Z,3.02
2019-06-15T11:49:25.534Z,2.87
2019-06-15T11:51:53.134Z,2.60
2019-06-15T11:54:20.775Z,3.00
2019-06-15T11:56:48.418Z,2.40
2019-06-15T11:59:16.122Z,2.83
2019-06-15T12:01:43.762Z,2.70
2019-06-15T12:04:11.381Z,3.60
2019-06-15T12:06:38.982Z,5.33
2019-06-15T12:09:07.078Z,4.95
2019-06-15T12:11:34.732Z,5.00
2019-06-15T12:14:02.348Z,4.62
2019-06-15T12:16:31.224Z,4.17
2019-06-15T12:18:58.884Z,3.25
2019-06-15T12:21:26.505Z,3.62
2019-06-15T12:23:55.461Z,3.15
2019-06-15T12:26:23.083Z,2.83
2019-06-15T12:28:51.064Z,3.25
2019-06-15T12:31:18.683Z,2.90
2019-06-15T12:33:46.505Z,3.17
2019-06-15T12:36:19.255Z,2.87
2019-06-15T12:38:43.661Z,3.08
2019-06-15T12:41:11.309Z,3.35
2019-06-15T12:43:39.004Z,3.12
2019-06-15T12:46:06.677Z,3.45
2019-06-15T12:48:34.373Z,3.22
2019-06-15T12:51:02.008Z,2.95
2019-06-15T12:53:29.653Z,3.42
2019-06-15T12:55:59.228Z,3.80
2019-06-15T12:58:26.775Z,3.72
2019-06-15T13:01:03.049Z,3.60
2019-06-15T13:03:23.944Z,3.52
2019-06-15T13:05:51.593Z,3.30
2019-06-15T13:08:19.199Z,3.40
2019-06-15T13:10:46.941Z,3.35
2019-06-15T13:13:16.346Z,3.45
2019-06-15T13:15:44.014Z,2.90
2019-06-15T13:18:11.640Z,2.58
2019-06-15T13:20:39.260Z,3.05
2019-06-15T13:23:06.903Z,3.10
2019-06-15T13:25:34.519Z,3.10
2019-06-15T13:28:02.122Z,2.95
2019-06-15T13:30:29.737Z,3.10
2019-06-15T13:32:57.351Z,3.50
2019-06-15T13:35:24.983Z,3.25
2019-06-15T13:37:52.628Z,3.60
2019-06-15T13:40:20.274Z,3.10
2019-06-15T13:42:47.883Z,3.30
2019-06-15T13:45:15.639Z,3.12
2019-06-15T13:47:43.355Z,2.87
2019-06-15T13:50:11.106Z,3.42
2019-06-15T13:52:38.770Z,3.22
2019-06-15T13:55:06.755Z,3.40
2019-06-15T13:57:34.385Z,3.42
2019-06-15T14:00:02.310Z,3.70
2019-06-15T14:02:29.910Z,4.30
2019-06-15T14:04:57.542Z,3.70
2019-06-15T14:07:25.203Z,3.90
2019-06-15T14:09:54.567Z,3.62
2019-06-15T14:12:22.155Z,3.83
2019-06-15T14:14:49.832Z,3.80
2019-06-15T14:17:17.530Z,3.80
2019-06-15T14:19:45.137Z,4.08
2019-06-15T14:22:12.779Z,4.60
2019-06-15T14:24:40.438Z,4.70
2019-06-15T14:27:08.065Z,4.78
2019-06-15T14:29:35.665Z,4.45
2019-06-15T14:32:03.303Z,4.50
2019-06-15T14:34:31.006Z,4.62
2019-06-15T14:36:58.640Z,3.90
2019-06-15T14:39:26.249Z,4.33
2019-06-15T14:41:53.876Z,4.20
2019-06-15T14:44:21.473Z,4.35
2019-06-15T14:46:49.109Z,4.53
2019-06-15T14:49:16.772Z,4.70
2019-06-15T14:51:46.044Z,4.70
2019-06-15T14:54:16.038Z,4.28
2019-06-15T14:56:43.093Z,3.90
2019-06-15T14:59:10.712Z,3.40
2019-06-15T15:01:38.382Z,4.30
2019-06-15T15:04:06.357Z,3.47
2019-06-15T15:06:36.645Z,3.80
2019-06-15T15:09:06.543Z,3.72
2019-06-15T15:11:36.598Z,4.10
2019-06-15T15:14:03.662Z,3.70
2019-06-15T15:16:31.694Z,4.05
2019-06-15T15:18:59.301Z,3.80
2019-06-15T15:21:26.912Z,4.12
2019-06-15T15:23:56.916Z,3.60
2019-06-15T15:26:26.341Z,3.70
2019-06-15T15:28:53.400Z,3.92
2019-06-15T15:31:21.033Z,4.10
2019-06-15T15:33:50.582Z,3.50
2019-06-15T15:36:18.157Z,4.20
2019-06-15T15:38:46.816Z,3.30
2019-06-15T15:41:16.904Z,3.80
2019-06-15T15:43:46.295Z,4.00
2019-06-15T15:46:16.540Z,4.30
2019-06-15T15:48:46.703Z,5.30
2019-06-15T15:51:13.909Z,5.10
2019-06-15T15:53:41.553Z,4.80
2019-06-15T15:56:09.194Z,4.55
2019-06-15T15:58:36.831Z,5.15
2019-06-15T16:01:06.551Z,5.25
2019-06-15T16:03:33.906Z,5.03
2019-06-15T16:06:01.561Z,3.87
2019-06-15T16:08:29.208Z,4.45
2019-06-15T16:10:56.829Z,3.75
2019-06-15T16:13:26.750Z,3.95
2019-06-15T16:15:55.947Z,3.92
2019-06-15T16:18:23.562Z,4.00
2019-06-15T16:20:51.201Z,4.90
2019-06-15T16:23:18.909Z,4.12
2019-06-15T16:25:46.548Z,4.10
2019-06-15T16:28:14.242Z,4.47
2019-06-15T16:31:03.110Z,4.12
2019-06-15T16:33:11.348Z,4.10
2019-06-15T16:35:38.998Z,4.42
2019-06-15T16:38:07.125Z,4.80
2019-06-15T16:40:37.943Z,5.12
2019-06-15T16:43:07.013Z,4.70
2019-06-15T16:45:34.624Z,4.97
2019-06-15T16:48:02.290Z,4.70
2019-06-15T16:50:29.913Z,4.40
2019-06-15T16:52:57.520Z,4.05
2019-06-15T16:55:26.033Z,4.25
2019-06-15T16:57:56.615Z,4.00
2019-06-15T17:00:27.463Z,5.15
2019-06-15T17:02:53.938Z,5.10
2019-06-15T17:05:21.646Z,4.35
2019-06-15T17:07:49.376Z,4.08
2019-06-15T17:10:19.908Z,4.60
2019-06-15T17:12:47.727Z,4.20
2019-06-15T17:15:17.020Z,4.28
2019-06-15T17:17:46.087Z,4.83
2019-06-15T17:20:15.672Z,4.80
2019-06-15T17:22:43.302Z,5.83
2019-06-15T17:25:11.072Z,5.87
2019-06-15T17:27:38.684Z,7.40
2019-06-15T17:30:07.151Z,6.12
2019-06-15T17:32:36.953Z,6.60
2019-06-15T17:35:06.195Z,5.87
2019-06-15T17:37:36.209Z,6.20
2019-06-15T17:40:05.537Z,6.00
2019-06-15T17:42:33.128Z,5.45
2019-06-15T17:45:00.823Z,4.80
2019-06-15T17:47:28.439Z,5.30
2019-06-15T17:49:56.294Z,4.60
2019-06-15T17:52:26.282Z,4.80
2019-06-15T17:54:53.357Z,4.53
2019-06-15T17:57:21.090Z,4.60
2019-06-15T17:59:48.723Z,4.65
2019-06-15T18:02:17.173Z,4.70
2019-06-15T18:04:47.359Z,4.95
2019-06-15T18:07:16.695Z,5.35
2019-06-15T18:09:46.445Z,4.35
2019-06-15T18:12:13.212Z,4.47
2019-06-15T18:14:40.841Z,5.42
2019-06-15T18:17:08.546Z,5.65
2019-06-15T18:19:36.937Z,4.67
2019-06-15T18:22:07.032Z,5.50
2019-06-15T18:24:34.147Z,5.12
2019-06-15T18:27:01.829Z,4.92
2019-06-15T18:29:29.545Z,4.40
2019-06-15T18:31:57.187Z,4.70
2019-06-15T18:34:24.833Z,4.60
2019-06-15T18:36:52.495Z,4.50
2019-06-15T18:39:20.131Z,4.33
2019-06-15T18:41:49.668Z,4.55
2019-06-15T18:44:17.194Z,4.45
2019-06-15T18:46:46.546Z,5.00
2019-06-15T18:49:15.958Z,5.17
2019-06-15T18:51:45.895Z,5.08
2019-06-15T18:54:13.177Z,5.15
2019-06-15T18:56:40.864Z,4.33
2019-06-15T18:59:08.608Z,4.67
2019-06-15T19:01:37.520Z,4.22
2019-06-15T19:04:06.777Z,4.10
2019-06-15T19:06:36.916Z,4.28
2019-06-15T19:09:06.636Z,3.87
2019-06-15T19:11:34.343Z,4.28
2019-06-15T19:14:03.758Z,3.92
2019-06-15T19:16:31.445Z,4.62
2019-06-15T19:18:59.234Z,3.80
2019-06-15T19:24:26.029Z,4.30
2019-06-15T19:26:53.910Z,4.42
2019-06-15T19:29:21.592Z,4.30
2019-06-15T19:31:49.251Z,4.12
2019-06-15T19:34:16.889Z,4.37
2019-06-15T19:36:46.718Z,4.35
2019-06-15T19:39:16.401Z,4.05
2019-06-15T19:41:46.002Z,3.87
2019-06-15T19:44:13.261Z,4.10
2019-06-15T19:46:42.012Z,4.17
2019-06-15T19:49:09.850Z,3.85
2019-06-15T19:51:37.531Z,4.05
2019-06-15T19:54:07.055Z,4.30
2019-06-15T19:56:40.285Z,4.33
2019-06-15T19:59:07.899Z,4.08
2019-06-15T20:01:36.212Z,5.25
2019-06-15T20:04:06.505Z,4.58
2019-06-15T20:06:33.674Z,4.87
2019-06-15T20:09:01.296Z,5.28
2019-06-15T20:11:28.934Z,4.67
2019-06-15T20:13:56.604Z,4.90
2019-06-15T20:16:24.244Z,5.33
2019-06-15T20:18:51.918Z,4.87
2019-06-15T20:21:19.603Z,4.95
2019-06-15T20:23:47.554Z,5.17
2019-06-15T20:26:16.066Z,5.07
2019-06-15T20:28:43.811Z,5.25
2019-06-15T20:31:13.118Z,5.77
2019-06-15T20:33:40.846Z,5.13
2019-06-15T20:36:08.519Z,5.28
2019-06-15T20:38:36.540Z,6.17
2019-06-15T20:41:07.514Z,6.70
2019-06-15T20:43:36.627Z,7.63
2019-06-15T20:46:06.816Z,8.40
2019-06-15T20:48:36.230Z,8.53
2019-06-15T20:51:06.763Z,7.87
2019-06-15T20:53:33.071Z,8.07
2019-06-15T20:56:00.751Z,7.28
2019-06-15T20:58:28.442Z,7.65
2019-06-15T21:00:56.422Z,7.25
2019-06-15T21:03:26.637Z,7.80
2019-06-15T21:05:56.929Z,8.50
2019-06-15T21:08:23.052Z,8.60
2019-06-15T21:10:50.669Z,9.07
2019-06-15T21:13:19.537Z,8.60
2019-06-15T21:15:47.645Z,8.87
2019-06-15T21:18:15.480Z,8.08
2019-06-15T21:20:43.085Z,7.47
2019-06-15T21:23:10.757Z,8.57
2019-06-15T21:25:38.384Z,9.07
2019-06-15T21:28:06.758Z,9.93
2019-06-15T21:30:36.787Z,10.23
2019-06-15T21:33:06.811Z,10.00
2019-06-15T21:35:47.843Z,9.93
2019-06-15T21:38:03.010Z,9.10
2019-06-15T21:40:30.615Z,9.45
2019-06-15T21:42:58.194Z,9.48
2019-06-15T21:45:25.838Z,10.00
2019-06-15T21:47:55.864Z,9.60
2019-06-15T21:50:22.913Z,10.90
2019-06-15T21:52:50.527Z,11.63
2019-06-15T21:55:18.220Z,10.43
2019-06-15T21:57:45.872Z,11.38
2019-06-15T22:00:17.556Z,12.90
2019-06-15T22:02:47.104Z,11.87
2019-06-15T22:05:16.622Z,11.93
2019-06-15T22:07:44.301Z,12.30
2019-06-15T22:10:12.070Z,13.43
2019-06-15T22:12:39.773Z,13.23
2019-06-15T22:15:07.515Z,12.80
2019-06-15T22:17:37.128Z,12.87
2019-06-15T22:20:06.281Z,12.00
2019-06-15T22:22:36.265Z,12.20
2019-06-15T22:25:03.630Z,12.43
2019-06-15T22:27:31.279Z,10.37
2019-06-15T22:29:58.909Z,10.53
2019-06-15T22:32:27.036Z,10.50
2019-06-15T22:34:56.319Z,9.57
2019-06-15T22:37:26.243Z,10.90
2019-06-15T22:39:56.099Z,10.50
2019-06-15T22:42:23.072Z,10.87
2019-06-15T22:44:50.734Z,10.83
2019-06-15T22:47:18.472Z,11.23
2019-06-15T22:49:46.826Z,10.73
2019-06-15T22:52:17.047Z,9.93
2019-06-15T22:54:46.384Z,10.03
2019-06-15T22:57:13.628Z,9.47
2019-06-15T22:59:41.237Z,9.50
2019-06-15T23:02:08.949Z,9.57
2019-06-15T23:04:37.183Z,10.30
2019-06-15T23:07:06.924Z,9.40
2019-06-15T23:09:36.047Z,10.00
2019-06-15T23:12:03.848Z,10.47
2019-06-15T23:14:31.504Z,9.97
2019-06-15T23:16:59.154Z,9.47
2019-06-15T23:19:26.808Z,9.67
2019-06-15T23:21:57.195Z,10.07
2019-06-15T23:24:27.056Z,9.40
2019-06-15T23:26:56.942Z,10.10
2019-06-15T23:29:24.158Z,9.60
2019-06-15T23:31:51.791Z,10.10
2019-06-15T23:34:19.351Z,9.37
2019-06-15T23:36:56.867Z,9.57
2019-06-15T23:39:18.130Z,11.30
2019-06-15T23:41:46.968Z,10.90
2019-06-15T23:44:16.159Z,10.87
2019-06-15T23:46:43.919Z,10.20
2019-06-15T23:49:11.572Z,10.53
2019-06-15T23:51:39.148Z,10.60
2019-06-15T23:54:06.739Z,10.10
2019-06-15T23:56:36.701Z,10.33
2019-06-15T23:59:03.707Z,10.70
